createdAt,value
2023-05-14T00:01:10.281Z,3.53
2023-05-14T00:03:41.510Z,3.78
2023-05-14T00:06:09.191Z,3.70
2023-05-14T00:08:36.313Z,4.13
2023-05-14T00:11:03.090Z,3.88
2023-05-14T00:13:29.943Z,4.07
2023-05-14T00:15:56.909Z,3.60
2023-05-14T00:18:23.807Z,3.40
2023-05-14T00:20:54.922Z,3.72
2023-05-14T00:23:22.769Z,4.10
2023-05-14T00:25:50.240Z,3.72
2023-05-14T00:28:17.085Z,3.63
2023-05-14T00:30:44.805Z,3.80
2023-05-14T00:33:11.636Z,3.97
2023-05-14T00:35:38.757Z,4.10
2023-05-14T00:38:06.023Z,3.92
2023-05-14T00:40:33.049Z,3.80
2023-05-14T00:43:00.060Z,4.10
2023-05-14T00:45:26.973Z,3.75
2023-05-14T00:47:54.314Z,4.13
2023-05-14T00:50:21.433Z,4.00
2023-05-14T00:52:48.433Z,4.93
2023-05-14T00:55:16.759Z,4.38
2023-05-14T00:57:43.631Z,4.60
2023-05-14T01:00:11.076Z,4.82
2023-05-14T01:02:38.297Z,4.47
2023-05-14T01:05:05.362Z,4.60
2023-05-14T01:08:01.317Z,4.95
2023-05-14T01:10:48.279Z,4.55
2023-05-14T01:13:38.251Z,4.80
2023-05-14T01:16:05.542Z,4.60
2023-05-14T01:18:32.829Z,4.43
2023-05-14T01:20:59.821Z,4.93
2023-05-14T01:23:26.774Z,4.43
2023-05-14T01:25:53.735Z,4.30
2023-05-14T01:28:24.337Z,4.40
2023-05-14T01:30:59.147Z,4.40
2023-05-14T01:33:27.794Z,4.47
2023-05-14T01:35:54.895Z,4.57
2023-05-14T01:38:21.992Z,4.20
2023-05-14T01:40:49.123Z,3.92
2023-05-14T01:43:16.718Z,4.20
2023-05-14T01:45:44.253Z,4.00
2023-05-14T01:48:11.452Z,4.15
2023-05-14T01:50:38.728Z,4.20
2023-05-14T01:53:05.848Z,4.07
2023-05-14T01:55:32.852Z,3.80
2023-05-14T01:57:59.936Z,3.75
2023-05-14T02:00:27.063Z,3.45
2023-05-14T02:02:54.256Z,3.55
2023-05-14T02:05:21.938Z,4.20
2023-05-14T02:07:49.149Z,3.70
2023-05-14T02:10:16.091Z,3.92
2023-05-14T02:12:43.177Z,4.00
2023-05-14T02:15:11.486Z,3.70
2023-05-14T02:17:38.706Z,4.07
2023-05-14T02:20:06.642Z,4.07
2023-05-14T02:22:33.801Z,4.72
2023-05-14T02:25:01.342Z,4.80
2023-05-14T02:27:28.363Z,4.10
2023-05-14T02:29:56.911Z,4.70
2023-05-14T02:32:23.886Z,3.90
2023-05-14T02:34:51.084Z,4.38
2023-05-14T02:37:18.276Z,3.75
2023-05-14T02:39:45.077Z,3.90
2023-05-14T02:42:12.063Z,3.92
2023-05-14T02:44:39.129Z,4.38
2023-05-14T02:47:06.516Z,4.30
2023-05-14T02:49:33.751Z,5.10
2023-05-14T02:52:01.506Z,4.20
2023-05-14T02:54:28.659Z,4.13
2023-05-14T02:56:55.701Z,4.10
2023-05-14T02:59:24.493Z,4.30
2023-05-14T03:04:19.286Z,4.20
2023-05-14T03:06:46.416Z,3.95
2023-05-14T03:09:13.480Z,4.20
2023-05-14T03:11:40.368Z,4.20
2023-05-14T03:14:07.570Z,4.20
2023-05-14T03:16:34.589Z,4.07
2023-05-14T03:19:01.643Z,4.10
2023-05-14T03:21:28.562Z,4.25
2023-05-14T03:23:55.582Z,4.05
2023-05-14T03:26:22.581Z,4.25
2023-05-14T03:28:50.739Z,4.50
2023-05-14T03:31:17.763Z,4.38
2023-05-14T03:33:44.921Z,4.13
2023-05-14T03:36:11.969Z,4.75
2023-05-14T03:38:38.796Z,4.00
2023-05-14T03:41:05.806Z,4.78
2023-05-14T03:43:32.728Z,4.95
2023-05-14T03:46:00.412Z,4.13
2023-05-14T03:48:27.292Z,4.28
2023-05-14T03:50:54.424Z,4.70
2023-05-14T03:53:21.493Z,4.90
2023-05-14T03:55:48.415Z,4.60
2023-05-14T03:58:15.449Z,4.47
2023-05-14T04:00:43.109Z,4.32
2023-05-14T04:03:10.393Z,5.05
2023-05-14T04:05:37.299Z,4.70
2023-05-14T04:08:04.038Z,4.13
2023-05-14T04:10:32.321Z,4.57
2023-05-14T04:12:59.228Z,4.45
2023-05-14T04:15:26.025Z,4.68
2023-05-14T04:17:52.848Z,4.15
2023-05-14T04:20:19.692Z,3.92
2023-05-14T04:22:46.640Z,4.30
2023-05-14T04:25:13.565Z,4.25
2023-05-14T04:27:40.535Z,4.45
2023-05-14T04:30:08.757Z,4.70
2023-05-14T04:32:35.684Z,4.43
2023-05-14T04:35:04.544Z,4.13
2023-05-14T04:37:31.916Z,4.60
2023-05-14T04:39:58.728Z,4.43
2023-05-14T04:42:25.800Z,4.07
2023-05-14T04:44:52.892Z,5.13
2023-05-14T04:47:21.473Z,5.97
2023-05-14T04:49:48.697Z,6.35
2023-05-14T04:52:15.489Z,5.93
2023-05-14T04:54:42.311Z,6.43
2023-05-14T04:57:09.348Z,7.55
2023-05-14T04:59:36.697Z,7.32
2023-05-14T05:02:03.655Z,8.25
2023-05-14T05:04:30.748Z,8.48
2023-05-14T05:06:57.630Z,9.60
2023-05-14T05:09:24.501Z,10.65
2023-05-14T05:11:51.605Z,10.68
2023-05-14T05:14:18.426Z,11.82
2023-05-14T05:16:45.331Z,11.98
2023-05-14T05:19:12.388Z,11.43
2023-05-14T05:21:41.239Z,11.10
2023-05-14T05:24:08.605Z,11.25
2023-05-14T05:26:38.357Z,11.65
2023-05-14T05:29:05.506Z,11.48
2023-05-14T05:31:32.670Z,11.15
2023-05-14T05:33:59.979Z,11.20
2023-05-14T05:36:26.848Z,11.23
2023-05-14T05:38:53.883Z,11.60
2023-05-14T05:41:20.671Z,11.48
2023-05-14T05:43:47.603Z,11.10
2023-05-14T05:46:14.423Z,10.23
2023-05-14T05:48:41.421Z,11.18
2023-05-14T05:51:08.241Z,10.60
2023-05-14T05:53:35.057Z,10.90
2023-05-14T05:56:02.049Z,10.57
2023-05-14T05:58:29.156Z,10.65
2023-05-14T06:00:58.062Z,9.98
2023-05-14T06:03:25.187Z,10.40
2023-05-14T06:05:53.040Z,10.10
2023-05-14T06:08:19.926Z,9.60
2023-05-14T06:10:47.712Z,10.05
2023-05-14T06:13:14.653Z,9.55
2023-05-14T06:15:41.617Z,9.43
2023-05-14T06:18:08.646Z,9.15
2023-05-14T06:20:35.573Z,10.27
2023-05-14T06:23:02.872Z,9.52
2023-05-14T06:25:29.773Z,10.10
2023-05-14T06:27:56.767Z,9.75
2023-05-14T06:30:23.776Z,9.68
2023-05-14T06:32:52.110Z,9.85
2023-05-14T06:35:19.339Z,9.45
2023-05-14T06:37:46.332Z,9.77
2023-05-14T06:40:16.038Z,8.88
2023-05-14T06:42:42.898Z,8.88
2023-05-14T06:45:10.052Z,10.07
2023-05-14T06:47:37.147Z,9.30
2023-05-14T06:50:04.304Z,9.27
2023-05-14T06:52:31.158Z,9.80
2023-05-14T06:54:58.014Z,9.73
2023-05-14T06:57:25.028Z,9.45
2023-05-14T06:59:52.302Z,10.05
2023-05-14T07:02:19.201Z,8.90
2023-05-14T07:04:46.867Z,9.10
2023-05-14T07:07:15.591Z,9.43
2023-05-14T07:12:09.457Z,9.23
2023-05-14T07:14:36.455Z,9.40
2023-05-14T07:17:03.561Z,9.52
2023-05-14T07:19:30.508Z,9.52
2023-05-14T07:21:58.152Z,9.27
2023-05-14T07:24:25.158Z,9.50
2023-05-14T07:26:52.154Z,9.55
2023-05-14T07:29:19.062Z,9.05
2023-05-14T07:31:46.064Z,9.48
2023-05-14T07:34:13.091Z,9.30
2023-05-14T07:36:40.037Z,9.68
2023-05-14T07:39:07.111Z,9.10
2023-05-14T07:41:34.003Z,8.77
2023-05-14T07:44:00.943Z,9.02
2023-05-14T07:46:27.748Z,8.70
2023-05-14T07:48:54.735Z,8.60
2023-05-14T07:51:21.602Z,8.73
2023-05-14T07:53:48.684Z,8.25
2023-05-14T07:56:15.626Z,8.60
2023-05-14T07:58:42.547Z,8.07
2023-05-14T08:01:09.509Z,8.45
2023-05-14T08:03:36.742Z,8.02
2023-05-14T08:06:04.609Z,8.35
2023-05-14T08:08:31.677Z,8.13
2023-05-14T08:10:58.621Z,8.05
2023-05-14T08:13:25.575Z,8.25
2023-05-14T08:15:52.938Z,7.75
2023-05-14T08:18:19.807Z,7.53
2023-05-14T08:20:47.162Z,7.60
2023-05-14T08:23:14.174Z,7.25
2023-05-14T08:25:41.285Z,7.18
2023-05-14T08:28:08.306Z,7.57
2023-05-14T08:30:35.279Z,7.35
2023-05-14T08:33:02.129Z,7.07
2023-05-14T08:35:28.996Z,6.65
2023-05-14T08:37:57.385Z,7.20
2023-05-14T08:40:24.387Z,6.55
2023-05-14T08:42:51.754Z,5.68
2023-05-14T08:45:20.527Z,5.97
2023-05-14T08:47:51.052Z,5.63
2023-05-14T08:50:22.772Z,5.40
2023-05-14T08:52:50.654Z,5.10
2023-05-14T08:55:17.630Z,5.22
2023-05-14T08:57:44.672Z,5.00
2023-05-14T09:00:12.175Z,4.97
2023-05-14T09:02:42.629Z,4.90
2023-05-14T09:05:09.938Z,4.90
2023-05-14T09:07:36.943Z,4.97
2023-05-14T09:10:04.221Z,6.10
2023-05-14T09:12:31.581Z,5.88
2023-05-14T09:14:58.462Z,5.13
2023-05-14T09:17:26.698Z,5.22
2023-05-14T09:19:53.831Z,4.70
2023-05-14T09:22:21.082Z,4.40
2023-05-14T09:25:05.254Z,4.77
2023-05-14T09:27:33.008Z,4.72
2023-05-14T09:30:11.253Z,4.68
2023-05-14T09:32:44.367Z,4.35
2023-05-14T09:35:18.065Z,4.45
2023-05-14T09:37:46.659Z,4.18
2023-05-14T09:40:14.691Z,4.80
2023-05-14T09:42:41.799Z,4.90
2023-05-14T09:45:09.727Z,4.53
2023-05-14T09:47:37.606Z,4.20
2023-05-14T09:50:05.455Z,5.10
2023-05-14T09:52:32.301Z,4.50
2023-05-14T09:54:59.261Z,4.47
2023-05-14T09:57:27.096Z,4.18
2023-05-14T09:59:54.414Z,4.32
2023-05-14T10:02:23.944Z,3.95
2023-05-14T10:04:52.655Z,4.03
2023-05-14T10:07:24.095Z,3.63
2023-05-14T10:09:53.959Z,3.80
2023-05-14T10:12:22.673Z,3.83
2023-05-14T10:14:53.412Z,3.50
2023-05-14T10:17:22.045Z,3.40
2023-05-14T10:19:54.438Z,3.70
2023-05-14T10:22:24.228Z,3.60
2023-05-14T10:24:54.385Z,3.60
2023-05-14T10:27:21.797Z,3.53
2023-05-14T10:29:55.944Z,3.40
2023-05-14T10:32:26.689Z,3.88
2023-05-14T10:34:54.080Z,3.53
2023-05-14T10:37:21.776Z,3.70
2023-05-14T10:39:51.622Z,3.70
2023-05-14T10:42:20.290Z,3.85
2023-05-14T10:44:51.237Z,3.55
2023-05-14T10:47:18.494Z,3.80
2023-05-14T10:49:49.333Z,3.50
2023-05-14T10:52:18.881Z,3.80
2023-05-14T10:55:01.876Z,3.65
2023-05-14T10:57:31.918Z,3.65
2023-05-14T11:00:00.414Z,4.13
2023-05-14T11:02:37.716Z,3.67
2023-05-14T11:05:09.560Z,3.92
2023-05-14T11:07:38.334Z,3.70
2023-05-14T11:10:07.004Z,3.50
2023-05-14T11:12:38.248Z,3.80
2023-05-14T11:15:07.903Z,3.78
2023-05-14T11:17:35.675Z,3.70
2023-05-14T11:20:02.581Z,3.90
2023-05-14T11:22:29.697Z,3.70
2023-05-14T11:24:56.648Z,3.50
2023-05-14T11:27:24.209Z,3.50
2023-05-14T11:29:51.122Z,3.45
2023-05-14T11:32:18.861Z,3.40
2023-05-14T11:34:46.234Z,3.60
2023-05-14T11:37:15.220Z,3.50
2023-05-14T11:40:10.274Z,3.40
2023-05-14T11:42:37.423Z,3.10
2023-05-14T11:45:04.999Z,3.20
2023-05-14T11:47:32.253Z,3.00
2023-05-14T11:49:59.857Z,3.10
2023-05-14T11:52:26.714Z,2.83
2023-05-14T11:54:53.439Z,3.00
2023-05-14T11:57:21.157Z,2.80
2023-05-14T11:59:58.874Z,2.90
2023-05-14T12:02:28.497Z,2.97
2023-05-14T12:04:55.511Z,2.92
2023-05-14T12:07:22.620Z,2.80
2023-05-14T12:09:50.801Z,2.90
2023-05-14T12:12:21.808Z,2.92
2023-05-14T12:14:50.743Z,2.85
2023-05-14T12:17:22.193Z,2.70
2023-05-14T12:19:50.937Z,3.13
2023-05-14T12:22:22.628Z,2.72
2023-05-14T12:24:59.324Z,2.50
2023-05-14T12:27:27.802Z,2.40
2023-05-14T12:30:19.946Z,2.03
2023-05-14T12:32:49.115Z,2.20
2023-05-14T12:35:16.229Z,2.08
2023-05-14T12:37:43.250Z,2.00
2023-05-14T12:40:10.416Z,2.20
2023-05-14T12:42:37.710Z,1.90
2023-05-14T12:45:08.163Z,1.92
2023-05-14T12:47:36.523Z,2.13
2023-05-14T12:52:37.603Z,2.00
2023-05-14T12:55:10.213Z,2.08
2023-05-14T12:57:39.621Z,2.00
2023-05-14T13:00:10.836Z,2.30
2023-05-14T13:02:42.222Z,1.95
2023-05-14T13:05:10.812Z,2.15
2023-05-14T13:07:37.746Z,2.03
2023-05-14T13:10:08.490Z,2.13
2023-05-14T13:12:35.616Z,2.10
2023-05-14T13:15:02.556Z,2.00
2023-05-14T13:17:29.521Z,2.20
2023-05-14T13:19:56.517Z,2.20
2023-05-14T13:22:23.505Z,2.13
2023-05-14T13:24:50.729Z,2.15
2023-05-14T13:27:17.621Z,2.20
2023-05-14T13:29:44.531Z,2.10
2023-05-14T13:32:11.411Z,2.25
2023-05-14T13:34:38.356Z,2.25
2023-05-14T13:37:05.329Z,2.10
2023-05-14T13:39:32.188Z,2.28
2023-05-14T13:41:59.219Z,2.20
2023-05-14T13:44:26.097Z,2.25
2023-05-14T13:46:53.086Z,2.20
2023-05-14T13:49:20.066Z,2.40
2023-05-14T13:51:47.024Z,2.13
2023-05-14T13:54:13.991Z,2.30
2023-05-14T13:56:40.892Z,2.50
2023-05-14T13:59:07.922Z,2.30
2023-05-14T14:01:34.979Z,2.10
2023-05-14T14:04:01.914Z,2.50
2023-05-14T14:06:31.303Z,2.50
2023-05-14T14:08:58.309Z,2.55
2023-05-14T14:11:25.074Z,2.40
2023-05-14T14:13:52.052Z,2.38
2023-05-14T14:16:19.189Z,2.25
2023-05-14T14:18:46.297Z,2.40
2023-05-14T14:21:13.219Z,2.70
2023-05-14T14:23:40.240Z,2.60
2023-05-14T14:26:07.669Z,2.60
2023-05-14T14:28:34.855Z,2.40
2023-05-14T14:31:02.615Z,2.35
2023-05-14T14:33:31.467Z,2.67
2023-05-14T14:35:58.466Z,2.90
2023-05-14T14:38:25.360Z,2.58
2023-05-14T14:40:52.699Z,2.60
2023-05-14T14:43:19.567Z,2.45
2023-05-14T14:45:48.883Z,2.50
2023-05-14T14:48:27.174Z,2.58
2023-05-14T14:50:54.821Z,2.83
2023-05-14T14:53:21.889Z,2.70
2023-05-14T14:55:49.456Z,2.63
2023-05-14T14:58:16.406Z,2.78
2023-05-14T15:00:43.590Z,2.85
2023-05-14T15:03:10.702Z,2.70
2023-05-14T15:05:38.218Z,2.72
2023-05-14T15:08:05.503Z,2.40
2023-05-14T15:10:32.645Z,2.85
2023-05-14T15:12:59.700Z,2.70
2023-05-14T15:15:26.568Z,2.60
2023-05-14T15:17:53.598Z,2.70
2023-05-14T15:20:20.551Z,2.50
2023-05-14T15:22:47.469Z,2.30
2023-05-14T15:25:14.393Z,2.20
2023-05-14T15:27:41.229Z,2.30
2023-05-14T15:30:08.618Z,2.30
2023-05-14T15:32:35.611Z,2.38
2023-05-14T15:35:02.739Z,2.30
2023-05-14T15:37:42.776Z,2.47
2023-05-14T15:40:10.656Z,2.38
2023-05-14T15:42:38.878Z,2.50
2023-05-14T15:45:06.109Z,2.30
2023-05-14T15:47:33.038Z,2.20
2023-05-14T15:50:00.251Z,2.22
2023-05-14T15:52:27.105Z,2.35
2023-05-14T15:54:56.027Z,2.10
2023-05-14T15:57:23.283Z,2.13
2023-05-14T15:59:50.363Z,2.40
2023-05-14T16:02:17.332Z,2.25
2023-05-14T16:04:47.046Z,2.20
2023-05-14T16:07:13.996Z,1.95
2023-05-14T16:09:40.908Z,1.95
2023-05-14T16:12:08.120Z,2.15
2023-05-14T16:14:35.378Z,2.10
2023-05-14T16:17:02.264Z,2.30
2023-05-14T16:19:29.228Z,2.22
2023-05-14T16:21:56.226Z,2.35
2023-05-14T16:24:23.005Z,2.60
2023-05-14T16:26:49.824Z,2.40
2023-05-14T16:29:16.793Z,2.40
2023-05-14T16:31:43.855Z,2.35
2023-05-14T16:34:11.024Z,2.40
2023-05-14T16:36:38.088Z,2.30
2023-05-14T16:39:07.708Z,2.35
2023-05-14T16:41:36.202Z,2.60
2023-05-14T16:44:03.680Z,2.65
2023-05-14T16:46:31.403Z,2.60
2023-05-14T16:48:58.363Z,2.47
2023-05-14T16:51:25.309Z,2.40
2023-05-14T16:53:52.451Z,2.22
2023-05-14T16:58:48.826Z,2.30
2023-05-14T17:01:16.056Z,2.67
2023-05-14T17:03:43.704Z,2.88
2023-05-14T17:06:10.739Z,2.60
2023-05-14T17:08:37.652Z,2.67
2023-05-14T17:11:06.105Z,3.00
2023-05-14T17:13:33.471Z,3.20
2023-05-14T17:16:03.520Z,2.95
2023-05-14T17:18:30.961Z,2.70
2023-05-14T17:20:57.737Z,2.78
2023-05-14T17:23:24.664Z,2.58
2023-05-14T17:25:51.579Z,2.75
2023-05-14T17:28:18.518Z,2.88
2023-05-14T17:30:45.391Z,2.60
2023-05-14T17:33:12.389Z,2.67
2023-05-14T17:35:39.406Z,2.63
2023-05-14T17:38:06.377Z,2.42
2023-05-14T17:40:33.937Z,2.78
2023-05-14T17:43:00.969Z,2.50
2023-05-14T17:45:29.508Z,2.63
2023-05-14T17:47:59.476Z,2.33
2023-05-14T17:50:26.395Z,2.85
2023-05-14T17:52:54.401Z,2.58
2023-05-14T17:55:22.554Z,2.55
2023-05-14T17:57:49.966Z,2.63
2023-05-14T18:00:17.139Z,2.70
2023-05-14T18:02:44.069Z,2.58
2023-05-14T18:05:11.017Z,2.50
2023-05-14T18:07:37.846Z,2.40
2023-05-14T18:10:05.130Z,2.17
2023-05-14T18:12:32.038Z,1.95
2023-05-14T18:14:59.000Z,2.08
2023-05-14T18:17:25.906Z,2.10
2023-05-14T18:19:52.734Z,2.13
2023-05-14T18:22:21.980Z,2.08
2023-05-14T18:27:15.810Z,2.30
2023-05-14T18:29:43.678Z,2.30
2023-05-14T18:32:10.563Z,2.20
2023-05-14T18:34:37.601Z,2.10
2023-05-14T18:37:04.616Z,2.53
2023-05-14T18:39:31.477Z,2.40
2023-05-14T18:41:58.383Z,2.55
2023-05-14T18:44:25.159Z,2.50
2023-05-14T18:46:52.688Z,2.42
2023-05-14T18:49:19.701Z,2.60
2023-05-14T18:51:46.572Z,2.65
2023-05-14T18:54:13.573Z,2.65
2023-05-14T18:56:45.511Z,2.95
2023-05-14T18:59:14.677Z,3.13
2023-05-14T19:01:41.670Z,2.88
2023-05-14T19:04:08.702Z,2.70
2023-05-14T19:06:36.489Z,2.90
2023-05-14T19:09:04.675Z,2.70
2023-05-14T19:11:31.492Z,2.65
2023-05-14T19:13:58.314Z,2.67
2023-05-14T19:16:26.498Z,2.50
2023-05-14T19:18:53.647Z,2.42
2023-05-14T19:21:20.581Z,2.35
2023-05-14T19:23:47.755Z,2.55
2023-05-14T19:26:14.557Z,2.90
2023-05-14T19:28:42.174Z,2.47
2023-05-14T19:31:08.994Z,2.97
2023-05-14T19:33:35.856Z,2.80
2023-05-14T19:36:02.682Z,2.72
2023-05-14T19:38:29.885Z,3.10
2023-05-14T19:40:57.310Z,2.97
2023-05-14T19:43:25.719Z,3.17
2023-05-14T19:45:52.769Z,3.10
2023-05-14T19:48:19.824Z,3.20
2023-05-14T19:50:47.551Z,3.47
2023-05-14T19:53:14.687Z,3.50
2023-05-14T19:55:41.925Z,3.30
2023-05-14T19:58:09.044Z,3.05
2023-05-14T20:00:37.219Z,3.10
2023-05-14T20:03:05.841Z,3.28
2023-05-14T20:05:34.707Z,3.30
2023-05-14T20:08:02.194Z,3.00
2023-05-14T20:10:30.774Z,2.92
2023-05-14T20:12:57.848Z,3.10
2023-05-14T20:15:24.616Z,3.40
2023-05-14T20:17:51.663Z,3.25
2023-05-14T20:20:18.952Z,3.40
2023-05-14T20:22:46.218Z,3.50
2023-05-14T20:25:13.841Z,3.40
2023-05-14T20:27:41.414Z,3.60
2023-05-14T20:30:08.767Z,3.22
2023-05-14T20:32:35.757Z,3.35
2023-05-14T20:35:03.862Z,4.40
2023-05-14T20:37:32.929Z,5.28
2023-05-14T20:40:00.160Z,4.70
2023-05-14T20:42:27.634Z,4.80
2023-05-14T20:44:54.634Z,4.80
2023-05-14T20:47:24.409Z,4.93
2023-05-14T20:49:51.523Z,4.32
2023-05-14T20:52:18.918Z,4.38
2023-05-14T20:54:46.383Z,4.88
2023-05-14T20:57:15.430Z,4.55
2023-05-14T20:59:43.063Z,4.70
2023-05-14T21:02:10.132Z,4.35
2023-05-14T21:04:37.485Z,4.97
2023-05-14T21:07:05.343Z,4.30
2023-05-14T21:09:32.193Z,4.15
2023-05-14T21:11:59.226Z,4.30
2023-05-14T21:14:26.139Z,4.20
2023-05-14T21:16:52.974Z,4.35
2023-05-14T21:19:20.129Z,4.43
2023-05-14T21:21:47.528Z,4.50
2023-05-14T21:24:16.892Z,4.40
2023-05-14T21:29:11.524Z,4.10
2023-05-14T21:31:38.501Z,4.10
2023-05-14T21:34:05.418Z,4.03
2023-05-14T21:36:32.317Z,3.95
2023-05-14T21:38:59.240Z,4.30
2023-05-14T21:41:26.067Z,4.20
2023-05-14T21:43:53.070Z,4.88
2023-05-14T21:46:19.981Z,4.25
2023-05-14T21:48:47.126Z,3.97
2023-05-14T21:51:14.010Z,3.63
2023-05-14T21:53:41.074Z,3.50
2023-05-14T21:56:08.419Z,3.25
2023-05-14T21:58:36.086Z,3.40
2023-05-14T22:01:03.155Z,3.33
2023-05-14T22:03:30.087Z,2.88
2023-05-14T22:05:57.489Z,3.42
2023-05-14T22:08:24.402Z,2.78
2023-05-14T22:10:51.305Z,3.03
2023-05-14T22:13:18.110Z,3.13
2023-05-14T22:15:45.110Z,3.10
2023-05-14T22:18:13.113Z,3.75
2023-05-14T22:20:40.269Z,3.70
2023-05-14T22:23:07.335Z,3.38
2023-05-14T22:25:34.391Z,3.38
2023-05-14T22:28:01.266Z,3.50
2023-05-14T22:30:28.141Z,3.13
2023-05-14T22:32:55.093Z,3.13
2023-05-14T22:35:22.288Z,3.05
2023-05-14T22:37:49.293Z,2.63
2023-05-14T22:40:16.283Z,2.80
2023-05-14T22:42:43.309Z,2.70
2023-05-14T22:45:10.712Z,2.63
2023-05-14T22:47:38.671Z,2.95
2023-05-14T22:50:11.558Z,2.88
2023-05-14T22:52:40.203Z,3.08
2023-05-14T22:55:08.018Z,3.10
2023-05-14T22:57:35.065Z,2.80
2023-05-14T23:00:01.947Z,2.97
2023-05-14T23:02:29.313Z,2.70
2023-05-14T23:04:56.284Z,2.95
2023-05-14T23:07:23.108Z,2.80
2023-05-14T23:09:49.909Z,2.97
2023-05-14T23:12:16.963Z,2.67
2023-05-14T23:14:43.831Z,2.90
2023-05-14T23:17:10.686Z,2.53
2023-05-14T23:19:37.698Z,2.63
2023-05-14T23:22:05.015Z,3.15
2023-05-14T23:24:31.782Z,2.60
2023-05-14T23:26:58.663Z,2.63
2023-05-14T23:29:25.625Z,2.50
2023-05-14T23:31:52.532Z,2.63
2023-05-14T23:34:19.424Z,2.80
2023-05-14T23:36:46.207Z,3.10
2023-05-14T23:39:13.018Z,3.10
2023-05-14T23:41:39.866Z,3.10
2023-05-14T23:44:07.390Z,3.00
2023-05-14T23:46:34.673Z,2.72
2023-05-14T23:49:01.485Z,2.95
2023-05-14T23:51:28.542Z,2.88
2023-05-14T23:53:56.458Z,2.88
2023-05-14T23:56:24.716Z,2.80
2023-05-14T23:58:51.714Z,3.03
